createdAt,value
2018-12-15T00:00:58.960Z,27.40
2018-12-15T00:01:58.994Z,27.49
2018-12-15T00:02:58.979Z,27.52
2018-12-15T00:03:58.958Z,27.43
2018-12-15T00:04:58.962Z,27.42
2018-12-15T00:05:58.958Z,27.35
2018-12-15T00:06:58.960Z,27.45
2018-12-15T00:07:58.954Z,27.45
2018-12-15T00:08:58.945Z,27.46
2018-12-15T00:09:59.007Z,27.43
2018-12-15T00:10:58.939Z,27.48
2018-12-15T00:11:58.940Z,27.53
2018-12-15T00:12:58.926Z,27.52
2018-12-15T00:13:58.917Z,27.46
2018-12-15T00:14:58.933Z,27.52
2018-12-15T00:15:58.924Z,27.58
2018-12-15T00:17:05.574Z,27.55
2018-12-15T00:17:58.903Z,27.45
2018-12-15T00:18:58.903Z,27.61
2018-12-15T00:19:58.951Z,27.66
2018-12-15T00:20:58.906Z,27.59
2018-12-15T00:21:58.914Z,27.49
2018-12-15T00:22:58.877Z,27.53
2018-12-15T00:23:58.895Z,27.53
2018-12-15T00:24:58.885Z,27.58
2018-12-15T00:25:58.935Z,27.53
2018-12-15T00:26:58.890Z,27.45
2018-12-15T00:27:58.915Z,27.34
2018-12-15T00:28:58.918Z,27.31
2018-12-15T00:29:58.862Z,27.28
2018-12-15T00:30:58.894Z,27.35
2018-12-15T00:31:58.874Z,27.25
2018-12-15T00:32:58.863Z,27.25
2018-12-15T00:33:58.867Z,27.25
2018-12-15T00:34:58.867Z,27.35
2018-12-15T00:35:58.865Z,27.31
2018-12-15T00:36:58.835Z,27.21
2018-12-15T00:37:58.840Z,27.28
2018-12-15T00:38:58.842Z,27.31
2018-12-15T00:39:58.829Z,27.27
2018-12-15T00:40:58.892Z,27.35
2018-12-15T00:41:58.816Z,27.33
2018-12-15T00:42:58.827Z,27.30
2018-12-15T00:43:58.841Z,27.31
2018-12-15T00:44:58.854Z,27.23
2018-12-15T00:45:58.796Z,27.13
2018-12-15T00:46:58.804Z,27.13
2018-12-15T00:47:58.794Z,27.24
2018-12-15T00:48:58.811Z,27.03
2018-12-15T00:49:58.802Z,27.11
2018-12-15T00:50:58.831Z,27.11
2018-12-15T00:51:58.810Z,27.15
2018-12-15T00:52:58.768Z,26.98
2018-12-15T00:53:58.810Z,27.13
2018-12-15T00:54:58.782Z,27.09
2018-12-15T00:55:58.771Z,27.12
2018-12-15T00:56:58.752Z,27.11
2018-12-15T00:57:58.782Z,27.13
2018-12-15T00:58:58.740Z,27.15
2018-12-15T00:59:58.772Z,27.13
2018-12-15T01:00:58.756Z,27.15
2018-12-15T01:01:58.771Z,27.13
2018-12-15T01:02:58.764Z,27.15
2018-12-15T01:03:58.746Z,27.18
2018-12-15T01:04:58.743Z,27.21
2018-12-15T01:05:58.753Z,27.21
2018-12-15T01:06:58.779Z,27.24
2018-12-15T01:07:58.731Z,27.33
2018-12-15T01:08:58.732Z,27.31
2018-12-15T01:09:58.724Z,27.31
2018-12-15T01:10:58.773Z,27.30
2018-12-15T01:11:58.714Z,27.40
2018-12-15T01:12:58.703Z,27.27
2018-12-15T01:13:58.685Z,27.33
2018-12-15T01:14:58.709Z,27.38
2018-12-15T01:15:58.717Z,27.40
2018-12-15T01:16:58.674Z,27.38
2018-12-15T01:17:58.691Z,27.38
2018-12-15T01:18:58.701Z,27.43
2018-12-15T01:19:58.689Z,27.45
2018-12-15T01:20:58.683Z,27.48
2018-12-15T01:21:58.678Z,27.48
2018-12-15T01:22:58.691Z,27.43
2018-12-15T01:23:58.660Z,27.52
2018-12-15T01:24:58.675Z,27.43
2018-12-15T01:25:58.653Z,27.45
2018-12-15T01:26:58.655Z,27.43
2018-12-15T01:27:58.649Z,27.48
2018-12-15T01:28:58.651Z,27.45
2018-12-15T01:29:58.653Z,27.46
2018-12-15T01:30:58.649Z,27.45
2018-12-15T01:31:58.644Z,27.45
2018-12-15T01:32:58.630Z,27.46
2018-12-15T01:33:58.639Z,27.45
2018-12-15T01:34:58.622Z,27.42
2018-12-15T01:35:58.632Z,27.43
2018-12-15T01:36:58.706Z,27.42
2018-12-15T01:37:58.606Z,27.30
2018-12-15T01:38:58.603Z,27.33
2018-12-15T01:39:58.632Z,27.24
2018-12-15T01:40:58.596Z,27.28
2018-12-15T01:41:58.606Z,27.31
2018-12-15T01:42:58.651Z,27.20
2018-12-15T01:43:58.589Z,27.27
2018-12-15T01:44:58.614Z,27.25
2018-12-15T01:45:58.609Z,27.31
2018-12-15T01:46:58.595Z,27.30
2018-12-15T01:47:58.601Z,27.27
2018-12-15T01:48:58.587Z,27.31
2018-12-15T01:49:58.584Z,27.33
2018-12-15T01:50:58.578Z,27.33
2018-12-15T01:51:58.576Z,27.35
2018-12-15T01:52:58.559Z,27.38
2018-12-15T01:53:58.555Z,27.31
2018-12-15T01:54:58.568Z,27.33
2018-12-15T01:55:58.561Z,27.33
2018-12-15T01:56:58.566Z,27.33
2018-12-15T01:57:58.550Z,27.40
2018-12-15T01:58:58.553Z,27.39
2018-12-15T01:59:58.565Z,27.42
2018-12-15T02:00:58.605Z,27.40
2018-12-15T02:01:58.530Z,27.38
2018-12-15T02:02:58.544Z,27.38
2018-12-15T02:03:58.544Z,27.31
2018-12-15T02:04:58.499Z,27.25
2018-12-15T02:05:58.564Z,27.31
2018-12-15T02:06:58.497Z,27.33
2018-12-15T02:07:58.495Z,27.30
2018-12-15T02:08:58.558Z,27.43
2018-12-15T02:09:58.523Z,27.31
2018-12-15T02:10:58.503Z,27.39
2018-12-15T02:11:58.503Z,27.28
2018-12-15T02:12:58.467Z,27.30
2018-12-15T02:13:58.494Z,27.31
2018-12-15T02:14:58.488Z,27.33
2018-12-15T02:15:58.496Z,27.33
2018-12-15T02:16:58.477Z,27.35
2018-12-15T02:17:58.474Z,27.33
2018-12-15T02:18:58.484Z,27.34
2018-12-15T02:19:58.464Z,27.33
2018-12-15T02:20:58.450Z,27.35
2018-12-15T02:21:58.498Z,27.33
2018-12-15T02:22:58.476Z,27.28
2018-12-15T02:23:58.452Z,27.25
2018-12-15T02:24:58.433Z,27.30
2018-12-15T02:25:58.454Z,27.35
2018-12-15T02:26:58.416Z,27.40
2018-12-15T02:27:58.492Z,27.39
2018-12-15T02:28:58.442Z,27.40
2018-12-15T02:29:58.442Z,27.38
2018-12-15T02:30:58.424Z,27.35
2018-12-15T02:31:58.436Z,27.35
2018-12-15T02:32:58.430Z,27.38
2018-12-15T02:33:58.426Z,27.39
2018-12-15T02:34:58.406Z,27.27
2018-12-15T02:35:58.406Z,27.28
2018-12-15T02:36:58.414Z,27.38
2018-12-15T02:37:58.418Z,27.20
2018-12-15T02:38:58.393Z,27.27
2018-12-15T02:39:58.398Z,27.16
2018-12-15T02:40:58.383Z,27.25
2018-12-15T02:41:58.375Z,27.23
2018-12-15T02:42:58.392Z,27.23
2018-12-15T02:43:58.362Z,27.23
2018-12-15T02:44:58.366Z,27.23
2018-12-15T02:45:58.352Z,27.20
2018-12-15T02:46:58.383Z,27.20
2018-12-15T02:47:58.342Z,27.18
2018-12-15T02:48:58.350Z,27.18
2018-12-15T02:49:58.350Z,27.21
2018-12-15T02:50:58.346Z,27.11
2018-12-15T02:51:58.340Z,27.24
2018-12-15T02:52:58.339Z,27.23
2018-12-15T02:53:58.347Z,27.12
2018-12-15T02:54:58.318Z,27.05
2018-12-15T02:55:58.742Z,27.15
2018-12-15T02:56:58.329Z,27.05
2018-12-15T02:57:58.330Z,26.93
2018-12-15T02:58:58.312Z,26.91
2018-12-15T02:59:58.339Z,26.98
2018-12-15T03:00:58.311Z,26.97
2018-12-15T03:01:58.314Z,26.98
2018-12-15T03:02:58.329Z,26.97
2018-12-15T03:03:58.307Z,26.94
2018-12-15T03:04:58.281Z,26.90
2018-12-15T03:05:58.280Z,26.88
2018-12-15T03:06:58.272Z,26.86
2018-12-15T03:07:58.286Z,26.90
2018-12-15T03:08:58.258Z,26.81
2018-12-15T03:09:58.281Z,26.81
2018-12-15T03:10:58.261Z,26.79
2018-12-15T03:11:58.244Z,26.69
2018-12-15T03:12:58.268Z,26.75
2018-12-15T03:13:58.254Z,26.72
2018-12-15T03:14:58.247Z,26.72
2018-12-15T03:15:58.256Z,26.71
2018-12-15T03:16:58.236Z,26.73
2018-12-15T03:17:58.235Z,26.68
2018-12-15T03:18:58.214Z,26.65
2018-12-15T03:19:58.205Z,26.71
2018-12-15T03:20:58.221Z,26.68
2018-12-15T03:21:58.233Z,26.64
2018-12-15T03:22:58.212Z,26.64
2018-12-15T03:23:58.221Z,26.72
2018-12-15T03:24:58.195Z,26.69
2018-12-15T03:25:58.209Z,26.65
2018-12-15T03:26:58.168Z,26.75
2018-12-15T03:27:58.226Z,26.69
2018-12-15T03:28:58.168Z,26.61
2018-12-15T03:29:58.180Z,26.71
2018-12-15T03:30:58.168Z,26.66
2018-12-15T03:31:58.159Z,26.66
2018-12-15T03:32:58.168Z,26.64
2018-12-15T03:33:58.161Z,26.75
2018-12-15T03:34:58.152Z,26.68
2018-12-15T03:35:58.143Z,26.65
2018-12-15T03:36:58.164Z,26.72
2018-12-15T03:37:58.160Z,26.65
2018-12-15T03:38:58.143Z,26.54
2018-12-15T03:39:58.134Z,26.53
2018-12-15T03:40:58.118Z,26.57
2018-12-15T03:41:58.121Z,26.53
2018-12-15T03:42:58.127Z,26.54
2018-12-15T03:43:58.122Z,26.53
2018-12-15T03:44:58.121Z,26.41
2018-12-15T03:45:58.121Z,26.41
2018-12-15T03:46:58.112Z,26.39
2018-12-15T03:47:58.153Z,26.39
2018-12-15T03:48:58.106Z,26.41
2018-12-15T03:49:58.090Z,26.36
2018-12-15T03:50:58.097Z,26.41
2018-12-15T03:51:58.104Z,26.42
2018-12-15T03:52:58.092Z,26.41
2018-12-15T03:53:58.077Z,26.47
2018-12-15T03:54:58.082Z,26.47
2018-12-15T03:55:58.045Z,26.42
2018-12-15T03:56:58.051Z,26.50
2018-12-15T03:57:58.081Z,26.36
2018-12-15T03:58:58.054Z,26.41
2018-12-15T03:59:58.081Z,26.44
2018-12-15T04:00:58.042Z,26.39
2018-12-15T04:01:58.027Z,26.44
2018-12-15T04:02:58.092Z,26.39
2018-12-15T04:03:58.024Z,26.41
2018-12-15T04:04:58.041Z,26.24
2018-12-15T04:05:58.040Z,26.34
2018-12-15T04:06:58.026Z,26.28
2018-12-15T04:07:57.988Z,26.27
2018-12-15T04:08:58.048Z,26.29
2018-12-15T04:09:58.019Z,26.29
2018-12-15T04:10:57.997Z,26.32
2018-12-15T04:11:58.039Z,26.24
2018-12-15T04:12:57.981Z,26.27
2018-12-15T04:13:58.003Z,26.29
2018-12-15T04:14:57.994Z,26.27
2018-12-15T04:15:57.969Z,26.31
2018-12-15T04:16:57.957Z,26.27
2018-12-15T04:18:03.678Z,26.29
2018-12-15T04:18:57.960Z,26.31
2018-12-15T04:19:57.986Z,26.34
2018-12-15T04:20:57.948Z,26.29
2018-12-15T04:21:57.941Z,26.28
2018-12-15T04:22:57.943Z,26.31
2018-12-15T04:23:57.934Z,26.27
2018-12-15T04:24:57.950Z,26.28
2018-12-15T04:25:57.938Z,26.16
2018-12-15T04:26:57.923Z,26.16
2018-12-15T04:27:57.907Z,26.20
2018-12-15T04:28:57.901Z,26.21
2018-12-15T04:29:57.912Z,26.27
2018-12-15T04:30:57.921Z,26.13
2018-12-15T04:31:58.199Z,26.13
2018-12-15T04:32:57.950Z,26.17
2018-12-15T04:33:57.900Z,26.06
2018-12-15T04:34:57.873Z,26.03
2018-12-15T04:35:57.870Z,25.97
2018-12-15T04:36:57.879Z,25.94
2018-12-15T04:37:57.934Z,25.91
2018-12-15T04:38:57.873Z,25.90
2018-12-15T04:39:57.853Z,25.91
2018-12-15T04:40:57.864Z,25.90
2018-12-15T04:41:57.851Z,25.91
2018-12-15T04:42:58.148Z,25.93
2018-12-15T04:43:57.829Z,25.89
2018-12-15T04:44:57.838Z,25.89
2018-12-15T04:45:57.855Z,25.89
2018-12-15T04:46:57.825Z,25.93
2018-12-15T04:47:57.863Z,25.85
2018-12-15T04:48:57.830Z,25.90
2018-12-15T04:49:57.814Z,25.78
2018-12-15T04:50:57.850Z,25.79
2018-12-15T04:51:57.804Z,25.79
2018-12-15T04:52:57.783Z,25.78
2018-12-15T04:53:57.814Z,25.76
2018-12-15T04:54:57.778Z,25.79
2018-12-15T04:55:57.770Z,25.82
2018-12-15T04:56:57.807Z,25.78
2018-12-15T04:57:57.767Z,25.64
2018-12-15T04:58:57.763Z,25.59
2018-12-15T04:59:57.761Z,25.49
2018-12-15T05:00:57.760Z,25.53
2018-12-15T05:01:57.762Z,25.56
2018-12-15T05:02:57.758Z,25.60
2018-12-15T05:03:57.756Z,25.59
2018-12-15T05:04:58.045Z,25.67
2018-12-15T05:05:57.747Z,25.57
2018-12-15T05:06:57.785Z,25.66
2018-12-15T05:07:57.757Z,25.66
2018-12-15T05:08:57.725Z,25.67
2018-12-15T05:09:57.735Z,25.69
2018-12-15T05:10:57.692Z,25.57
2018-12-15T05:11:57.715Z,25.61
2018-12-15T05:12:57.706Z,25.67
2018-12-15T05:13:57.711Z,25.66
2018-12-15T05:14:57.726Z,25.51
2018-12-15T05:15:57.695Z,25.57
2018-12-15T05:16:57.707Z,25.54
2018-12-15T05:17:57.665Z,25.64
2018-12-15T05:18:57.677Z,25.56
2018-12-15T05:19:57.658Z,25.56
2018-12-15T05:20:57.706Z,25.53
2018-12-15T05:21:57.651Z,25.57
2018-12-15T05:22:57.659Z,25.54
2018-12-15T05:23:57.654Z,25.57
2018-12-15T05:24:57.639Z,25.51
2018-12-15T05:25:57.658Z,25.54
2018-12-15T05:26:57.644Z,25.59
2018-12-15T05:27:57.639Z,25.56
2018-12-15T05:28:57.641Z,25.53
2018-12-15T05:29:57.645Z,25.60
2018-12-15T05:30:57.633Z,25.66
2018-12-15T05:31:57.617Z,25.72
2018-12-15T05:32:57.606Z,25.69
2018-12-15T05:33:57.619Z,25.66
2018-12-15T05:34:57.580Z,25.64
2018-12-15T05:35:57.586Z,25.64
2018-12-15T05:36:57.593Z,25.63
2018-12-15T05:37:57.581Z,25.63
2018-12-15T05:38:57.583Z,25.53
2018-12-15T05:39:57.576Z,25.49
2018-12-15T05:40:57.564Z,25.48
2018-12-15T05:41:57.572Z,25.48
2018-12-15T05:42:57.561Z,25.45
2018-12-15T05:43:57.570Z,25.46
2018-12-15T05:44:57.531Z,25.46
2018-12-15T05:45:57.545Z,25.46
2018-12-15T05:46:57.526Z,25.48
2018-12-15T05:47:57.790Z,25.34
2018-12-15T05:48:57.530Z,25.44
2018-12-15T05:49:57.534Z,25.35
2018-12-15T05:50:57.498Z,25.31
2018-12-15T05:51:57.524Z,25.39
2018-12-15T05:52:57.515Z,25.44
2018-12-15T05:53:57.514Z,25.35
2018-12-15T05:54:57.504Z,25.34
2018-12-15T05:55:57.495Z,25.44
2018-12-15T05:56:57.476Z,25.44
2018-12-15T05:57:57.489Z,25.38
2018-12-15T05:58:57.480Z,25.42
2018-12-15T05:59:57.479Z,25.44
2018-12-15T06:00:57.472Z,25.42
2018-12-15T06:01:57.491Z,25.42
2018-12-15T06:02:57.467Z,25.42
2018-12-15T06:03:57.471Z,25.38
2018-12-15T06:04:57.445Z,25.31
2018-12-15T06:05:57.432Z,25.31
2018-12-15T06:06:57.435Z,25.29
2018-12-15T06:07:57.446Z,25.29
2018-12-15T06:08:57.448Z,25.20
2018-12-15T06:09:57.410Z,25.23
2018-12-15T06:10:57.418Z,25.34
2018-12-15T06:11:57.403Z,25.23
2018-12-15T06:12:57.425Z,25.39
2018-12-15T06:13:57.417Z,25.35
2018-12-15T06:14:57.392Z,25.29
2018-12-15T06:15:57.392Z,25.35
2018-12-15T06:16:57.385Z,25.29
2018-12-15T06:17:57.441Z,25.38
2018-12-15T06:18:57.367Z,25.26
2018-12-15T06:19:57.374Z,25.29
2018-12-15T06:20:57.351Z,25.30
2018-12-15T06:21:57.355Z,25.34
2018-12-15T06:22:57.365Z,25.36
2018-12-15T06:23:57.350Z,25.34
2018-12-15T06:24:57.361Z,25.29
2018-12-15T06:25:57.354Z,25.22
2018-12-15T06:26:57.337Z,25.24
2018-12-15T06:27:57.345Z,25.11
2018-12-15T06:28:57.344Z,25.02
2018-12-15T06:29:57.318Z,24.98
2018-12-15T06:30:57.302Z,24.92
2018-12-15T06:31:57.326Z,24.87
2018-12-15T06:32:57.406Z,24.90
2018-12-15T06:33:57.355Z,24.94
2018-12-15T06:34:57.286Z,24.90
2018-12-15T06:35:57.292Z,25.02
2018-12-15T06:36:57.299Z,24.92
2018-12-15T06:37:57.306Z,24.90
2018-12-15T06:38:57.277Z,24.87
2018-12-15T06:39:57.299Z,24.86
2018-12-15T06:40:57.319Z,24.90
2018-12-15T06:41:57.253Z,24.77
2018-12-15T06:42:57.252Z,24.79
2018-12-15T06:43:57.261Z,24.74
2018-12-15T06:44:57.219Z,24.77
2018-12-15T06:45:57.253Z,24.79
2018-12-15T06:46:57.237Z,24.74
2018-12-15T06:47:57.309Z,24.77
2018-12-15T06:48:57.215Z,24.74
2018-12-15T06:49:57.217Z,24.71
2018-12-15T06:50:57.199Z,24.74
2018-12-15T06:51:57.244Z,24.87
2018-12-15T06:52:57.191Z,24.79
2018-12-15T06:53:57.237Z,24.89
2018-12-15T06:54:57.190Z,24.89
2018-12-15T06:55:57.187Z,24.92
2018-12-15T06:56:57.193Z,24.86
2018-12-15T06:57:57.169Z,24.90
2018-12-15T06:58:57.170Z,24.86
2018-12-15T06:59:57.463Z,24.84
2018-12-15T07:00:57.148Z,24.86
2018-12-15T07:01:57.218Z,24.89
2018-12-15T07:02:57.135Z,24.89
2018-12-15T07:03:57.139Z,24.82
2018-12-15T07:04:57.125Z,24.75
2018-12-15T07:05:57.134Z,24.71
2018-12-15T07:06:57.118Z,24.74
2018-12-15T07:07:57.117Z,24.74
2018-12-15T07:08:57.108Z,24.83
2018-12-15T07:09:57.157Z,24.80
2018-12-15T07:10:57.119Z,24.84
2018-12-15T07:11:57.113Z,24.89
2018-12-15T07:12:57.092Z,24.89
2018-12-15T07:13:57.100Z,24.90
2018-12-15T07:14:57.085Z,24.90
2018-12-15T07:15:57.085Z,24.89
2018-12-15T07:16:57.052Z,24.90
2018-12-15T07:17:57.052Z,24.80
2018-12-15T07:18:57.049Z,24.79
2018-12-15T07:19:57.035Z,24.75
2018-12-15T07:20:57.320Z,24.74
2018-12-15T07:21:57.058Z,24.70
2018-12-15T07:22:57.042Z,24.79
2018-12-15T07:23:57.035Z,24.74
2018-12-15T07:24:57.029Z,24.79
2018-12-15T07:25:57.058Z,24.70
2018-12-15T07:26:57.018Z,24.64
2018-12-15T07:27:57.013Z,24.66
2018-12-15T07:28:56.986Z,24.51
2018-12-15T07:29:57.042Z,24.60
2018-12-15T07:30:57.000Z,24.64
2018-12-15T07:31:56.974Z,24.61
2018-12-15T07:32:57.009Z,24.68
2018-12-15T07:33:56.993Z,24.67
2018-12-15T07:35:00.877Z,24.75
2018-12-15T07:35:56.982Z,24.74
2018-12-15T07:36:56.962Z,24.74
2018-12-15T07:37:56.968Z,24.67
2018-12-15T07:38:56.951Z,24.52
2018-12-15T07:39:56.939Z,24.52
2018-12-15T07:40:56.924Z,24.60
2018-12-15T07:41:56.923Z,24.55
2018-12-15T07:42:56.903Z,24.60
2018-12-15T07:43:56.912Z,24.67
2018-12-15T07:44:56.922Z,24.64
2018-12-15T07:45:56.904Z,24.63
2018-12-15T07:46:56.884Z,24.66
2018-12-15T07:47:56.942Z,24.63
2018-12-15T07:48:56.877Z,24.66
2018-12-15T07:49:56.872Z,24.63
2018-12-15T07:50:56.895Z,24.67
2018-12-15T07:51:56.887Z,24.64
2018-12-15T07:52:56.868Z,24.59
2018-12-15T07:53:56.882Z,24.63
2018-12-15T07:54:56.873Z,24.66
2018-12-15T07:55:56.853Z,24.66
2018-12-15T07:56:56.847Z,24.67
2018-12-15T07:57:56.846Z,24.64
2018-12-15T07:58:56.841Z,24.67
2018-12-15T07:59:56.832Z,24.60
2018-12-15T08:00:56.803Z,24.56
2018-12-15T08:01:56.837Z,24.55
2018-12-15T08:02:56.805Z,24.55
2018-12-15T08:03:56.823Z,24.53
2018-12-15T08:04:56.810Z,24.49
2018-12-15T08:05:56.799Z,24.46
2018-12-15T08:06:56.798Z,24.39
2018-12-15T08:07:56.795Z,24.44
2018-12-15T08:08:56.776Z,24.49
2018-12-15T08:09:56.781Z,24.42
2018-12-15T08:10:56.776Z,24.46
2018-12-15T08:11:56.767Z,24.61
2018-12-15T08:12:56.764Z,24.48
2018-12-15T08:13:56.741Z,24.49
2018-12-15T08:14:56.760Z,24.49
2018-12-15T08:15:56.757Z,24.53
2018-12-15T08:16:56.780Z,24.51
2018-12-15T08:17:56.775Z,24.61
2018-12-15T08:18:58.203Z,24.53
2018-12-15T08:19:56.751Z,24.53
2018-12-15T08:20:56.715Z,24.55
2018-12-15T08:21:56.712Z,24.63
2018-12-15T08:22:56.696Z,24.60
2018-12-15T08:23:56.679Z,24.60
2018-12-15T08:24:56.688Z,24.60
2018-12-15T08:25:56.690Z,24.64
2018-12-15T08:26:56.696Z,24.61
2018-12-15T08:27:56.659Z,24.67
2018-12-15T08:28:56.667Z,24.64
2018-12-15T08:29:56.654Z,24.52
2018-12-15T08:30:56.657Z,24.63
2018-12-15T08:31:56.649Z,24.59
2018-12-15T08:32:56.649Z,24.51
2018-12-15T08:33:56.639Z,24.53
2018-12-15T08:34:56.648Z,24.51
2018-12-15T08:35:56.636Z,24.53
2018-12-15T08:36:56.622Z,24.56
2018-12-15T08:37:56.620Z,24.61
2018-12-15T08:38:56.588Z,24.55
2018-12-15T08:39:56.608Z,24.61
2018-12-15T08:40:56.589Z,24.59
2018-12-15T08:41:56.601Z,24.70
2018-12-15T08:42:56.592Z,24.63
2018-12-15T08:43:56.592Z,24.61
2018-12-15T08:44:56.603Z,24.64
2018-12-15T08:45:56.549Z,24.67
2018-12-15T08:46:56.552Z,24.66
2018-12-15T08:47:56.558Z,24.77
2018-12-15T08:48:56.561Z,24.63
2018-12-15T08:49:56.560Z,24.67
2018-12-15T08:50:56.546Z,24.67
2018-12-15T08:51:56.537Z,24.75
2018-12-15T08:52:56.532Z,24.82
2018-12-15T08:53:56.536Z,24.80
2018-12-15T08:54:56.524Z,24.79
2018-12-15T08:55:56.541Z,24.80
2018-12-15T08:56:56.501Z,24.75
2018-12-15T08:57:56.510Z,24.77
2018-12-15T08:58:56.491Z,24.67
2018-12-15T08:59:56.490Z,24.68
2018-12-15T09:00:56.486Z,24.70
2018-12-15T09:01:56.482Z,24.77
2018-12-15T09:02:56.520Z,24.67
2018-12-15T09:03:56.484Z,24.60
2018-12-15T09:04:56.474Z,24.63
2018-12-15T09:05:56.464Z,24.66
2018-12-15T09:06:56.480Z,24.64
2018-12-15T09:07:56.431Z,24.70
2018-12-15T09:08:56.469Z,24.79
2018-12-15T09:09:56.447Z,24.79
2018-12-15T09:10:56.457Z,24.74
2018-12-15T09:11:56.436Z,24.77
2018-12-15T09:12:56.420Z,24.80
2018-12-15T09:13:56.463Z,24.87
2018-12-15T09:14:56.410Z,24.90
2018-12-15T09:15:56.406Z,24.83
2018-12-15T09:16:56.402Z,24.87
2018-12-15T09:17:56.400Z,24.93
2018-12-15T09:18:56.429Z,24.94
2018-12-15T09:19:56.370Z,25.02
2018-12-15T09:20:56.371Z,25.02
2018-12-15T09:21:56.371Z,25.08
2018-12-15T09:22:56.346Z,25.07
2018-12-15T09:23:56.386Z,25.09
2018-12-15T09:24:56.369Z,25.14
2018-12-15T09:25:56.351Z,25.08
2018-12-15T09:26:56.348Z,25.07
2018-12-15T09:27:56.352Z,25.11
2018-12-15T09:28:56.314Z,24.94
2018-12-15T09:29:56.344Z,24.94
2018-12-15T09:30:56.300Z,25.05
2018-12-15T09:31:56.371Z,25.04
2018-12-15T09:32:56.338Z,25.14
2018-12-15T09:33:56.300Z,25.12
2018-12-15T09:34:56.310Z,25.16
2018-12-15T09:35:56.343Z,25.14
2018-12-15T09:36:56.292Z,25.11
2018-12-15T09:37:56.278Z,25.12
2018-12-15T09:38:56.292Z,25.24
2018-12-15T09:39:56.323Z,25.24
2018-12-15T09:40:56.270Z,25.30
2018-12-15T09:41:56.257Z,25.30
2018-12-15T09:42:56.253Z,25.31
2018-12-15T09:43:56.241Z,25.27
2018-12-15T09:44:56.267Z,25.31
2018-12-15T09:45:56.257Z,25.35
2018-12-15T09:46:56.279Z,25.31
2018-12-15T09:47:56.243Z,25.31
2018-12-15T09:48:56.272Z,25.36
2018-12-15T09:49:56.210Z,25.45
2018-12-15T09:50:56.212Z,25.48
2018-12-15T09:51:56.265Z,25.38
2018-12-15T09:52:56.198Z,25.44
2018-12-15T09:53:56.209Z,25.45
2018-12-15T09:54:56.209Z,25.46
2018-12-15T09:55:56.186Z,25.53
2018-12-15T09:56:56.192Z,25.56
2018-12-15T09:57:56.164Z,25.59
2018-12-15T09:58:56.176Z,25.49
2018-12-15T09:59:56.171Z,25.67
2018-12-15T10:00:56.175Z,25.67
2018-12-15T10:01:56.190Z,25.71
2018-12-15T10:02:56.151Z,25.67
2018-12-15T10:03:56.163Z,25.67
2018-12-15T10:04:56.133Z,25.71
2018-12-15T10:05:56.127Z,25.83
2018-12-15T10:06:56.118Z,25.76
2018-12-15T10:07:56.122Z,25.71
2018-12-15T10:08:56.122Z,25.76
2018-12-15T10:09:56.121Z,25.74
2018-12-15T10:10:56.117Z,25.72
2018-12-15T10:11:56.105Z,25.67
2018-12-15T10:12:56.102Z,25.75
2018-12-15T10:13:56.100Z,25.76
2018-12-15T10:14:56.094Z,25.74
2018-12-15T10:15:56.094Z,25.82
2018-12-15T10:16:56.082Z,25.81
2018-12-15T10:17:56.096Z,25.79
2018-12-15T10:18:56.083Z,25.82
2018-12-15T10:19:56.057Z,25.83
2018-12-15T10:20:56.080Z,25.86
2018-12-15T10:21:56.075Z,25.86
2018-12-15T10:22:56.046Z,25.86
2018-12-15T10:23:56.044Z,25.89
2018-12-15T10:24:56.045Z,25.91
2018-12-15T10:25:56.028Z,25.90
2018-12-15T10:26:56.036Z,26.01
2018-12-15T10:27:56.018Z,26.08
2018-12-15T10:28:56.027Z,26.13
2018-12-15T10:29:56.008Z,26.04
2018-12-15T10:30:56.028Z,26.23
2018-12-15T10:31:56.017Z,26.27
2018-12-15T10:32:56.025Z,26.28
2018-12-15T10:33:56.014Z,26.29
2018-12-15T10:34:56.013Z,26.28
2018-12-15T10:35:55.971Z,26.32
2018-12-15T10:36:55.984Z,26.44
2018-12-15T10:37:55.975Z,26.39
2018-12-15T10:38:55.978Z,26.38
2018-12-15T10:39:55.961Z,26.51
2018-12-15T10:40:55.956Z,26.53
2018-12-15T10:41:55.977Z,26.47
2018-12-15T10:42:55.946Z,26.56
2018-12-15T10:43:55.949Z,26.57
2018-12-15T10:44:55.996Z,26.60
2018-12-15T10:45:55.960Z,26.53
2018-12-15T10:46:55.954Z,26.56
2018-12-15T10:47:55.924Z,26.65
2018-12-15T10:48:55.948Z,26.69
2018-12-15T10:49:55.929Z,26.72
2018-12-15T10:50:55.928Z,26.66
2018-12-15T10:51:55.908Z,26.66
2018-12-15T10:52:55.930Z,26.69
2018-12-15T10:53:55.909Z,26.71
2018-12-15T10:54:55.892Z,26.72
2018-12-15T10:55:55.877Z,26.75
2018-12-15T10:56:55.908Z,26.83
2018-12-15T10:57:55.961Z,26.90
2018-12-15T10:58:55.889Z,26.97
2018-12-15T10:59:55.882Z,26.91
2018-12-15T11:00:55.868Z,26.98
2018-12-15T11:01:55.884Z,26.96
2018-12-15T11:02:55.880Z,27.06
2018-12-15T11:04:00.764Z,26.93
2018-12-15T11:04:55.867Z,27.11
2018-12-15T11:05:55.864Z,27.16
2018-12-15T11:06:55.841Z,27.15
2018-12-15T11:07:55.849Z,27.13
2018-12-15T11:08:55.857Z,27.20
2018-12-15T11:09:55.840Z,27.30
2018-12-15T11:10:55.834Z,27.31
2018-12-15T11:11:55.842Z,27.31
2018-12-15T11:12:55.805Z,27.45
2018-12-15T11:13:56.809Z,27.45
2018-12-15T11:14:55.795Z,27.61
2018-12-15T11:15:55.796Z,27.65
2018-12-15T11:16:55.806Z,27.74
2018-12-15T11:17:55.811Z,27.87
2018-12-15T11:18:55.784Z,27.88
2018-12-15T11:19:55.796Z,27.83
2018-12-15T11:20:55.777Z,27.99
2018-12-15T11:21:55.808Z,28.11
2018-12-15T11:22:55.792Z,28.21
2018-12-15T11:23:55.799Z,28.25
2018-12-15T11:24:55.829Z,28.18
2018-12-15T11:25:55.766Z,28.24
2018-12-15T11:26:55.763Z,28.40
2018-12-15T11:27:55.775Z,28.30
2018-12-15T11:28:55.754Z,28.42
2018-12-15T11:29:55.741Z,28.46
2018-12-15T11:30:55.763Z,28.58
2018-12-15T11:31:55.741Z,28.70
2018-12-15T11:32:55.741Z,28.76
2018-12-15T11:33:55.752Z,28.74
2018-12-15T11:34:55.737Z,28.73
2018-12-15T11:35:55.751Z,28.97
2018-12-15T11:36:55.719Z,29.02
2018-12-15T11:37:55.732Z,29.02
2018-12-15T11:38:55.747Z,29.14
2018-12-15T11:39:55.723Z,29.26
2018-12-15T11:40:55.729Z,29.25
2018-12-15T11:41:55.715Z,29.41
2018-12-15T11:42:55.723Z,29.49
2018-12-15T11:43:55.725Z,29.58
2018-12-15T11:44:55.759Z,29.79
2018-12-15T11:45:55.711Z,29.92
2018-12-15T11:46:55.698Z,30.22
2018-12-15T11:47:55.711Z,30.01
2018-12-15T11:48:55.690Z,30.10
2018-12-15T11:49:55.704Z,30.26
2018-12-15T11:50:55.695Z,30.37
2018-12-15T11:51:55.694Z,30.40
2018-12-15T11:52:55.684Z,30.61
2018-12-15T11:53:55.689Z,30.73
2018-12-15T11:54:55.727Z,30.97
2018-12-15T11:55:55.706Z,31.09
2018-12-15T11:56:55.679Z,31.20
2018-12-15T11:57:55.683Z,31.32
2018-12-15T11:58:55.670Z,31.40
2018-12-15T11:59:55.681Z,31.56
2018-12-15T12:00:55.660Z,31.87
2018-12-15T12:01:55.720Z,32.03
2018-12-15T12:02:55.692Z,32.17
2018-12-15T12:03:55.657Z,32.31
2018-12-15T12:04:55.678Z,32.40
2018-12-15T12:05:55.671Z,32.46
2018-12-15T12:06:55.678Z,32.56
2018-12-15T12:07:55.675Z,32.66
2018-12-15T12:08:55.672Z,32.72
2018-12-15T12:09:55.729Z,32.99
2018-12-15T12:10:55.673Z,33.05
2018-12-15T12:11:55.728Z,33.05
2018-12-15T12:12:55.674Z,32.90
2018-12-15T12:14:00.338Z,32.93
2018-12-15T12:14:55.690Z,32.93
2018-12-15T12:15:55.678Z,33.11
2018-12-15T12:16:55.671Z,33.14
2018-12-15T12:17:55.660Z,33.14
2018-12-15T12:18:55.662Z,33.26
2018-12-15T12:19:55.679Z,33.43
2018-12-15T12:20:55.691Z,33.38
2018-12-15T12:21:55.681Z,33.37
2018-12-15T12:22:55.691Z,33.26
2018-12-15T12:23:55.710Z,33.11
2018-12-15T12:24:55.666Z,33.14
2018-12-15T12:25:55.682Z,33.20
2018-12-15T12:26:55.722Z,33.22
2018-12-15T12:27:55.723Z,33.33
2018-12-15T12:28:55.680Z,33.53
2018-12-15T12:29:55.698Z,33.74
2018-12-15T12:30:55.686Z,33.33
2018-12-15T12:31:55.710Z,33.37
2018-12-15T12:32:55.673Z,33.66
2018-12-15T12:33:55.700Z,33.55
2018-12-15T12:34:55.673Z,33.22
2018-12-15T12:35:55.689Z,33.11
2018-12-15T12:36:55.673Z,33.15
2018-12-15T12:37:55.689Z,33.49
2018-12-15T12:38:55.691Z,33.45
2018-12-15T12:39:55.698Z,33.24
2018-12-15T12:40:55.693Z,33.49
2018-12-15T12:41:55.735Z,33.49
2018-12-15T12:42:55.698Z,33.50
2018-12-15T12:43:55.694Z,33.70
2018-12-15T12:44:55.686Z,33.87
2018-12-15T12:45:55.700Z,33.97
2018-12-15T12:46:55.693Z,34.27
2018-12-15T12:47:55.674Z,34.16
2018-12-15T12:48:55.712Z,34.30
2018-12-15T12:49:57.037Z,34.56
2018-12-15T12:50:55.696Z,34.75
2018-12-15T12:51:55.700Z,34.95
2018-12-15T12:52:55.701Z,35.10